Time;durP1;ratioP1;P1;durP2;ratioP2;P2;SDS_P1;SDS_P2;PMS_P1;PMS_P2;Temp;Humidity;BMP_temperature;BMP_pressure;BME280_temperature;BME280_humidity;BME280_pressure;Samples;Min_cycle;Max_cycle;Signal;HPM_P1;HPM_P2
2023/10/02 00:03:32;;;;;;;8.02;5.78;;;21.10;55.00;;;;;;5050685;28;20568;-74
2023/10/02 00:05:59;;;;;;;8.45;5.82;;;21.00;54.90;;;;;;5053862;28;20203;-74
2023/10/02 00:08:39;;;;;;;7.53;5.50;;;21.10;55.00;;;;;;5054046;28;20655;-74
2023/10/02 00:14:22;;;;;;;10.18;5.97;;;21.10;55.10;;;;;;5053429;28;20261;-75
2023/10/02 00:16:59;;;;;;;9.85;5.90;;;21.00;55.00;;;;;;5053309;28;20203;-75
2023/10/02 00:19:28;;;;;;;7.38;5.78;;;21.00;55.00;;;;;;5053226;28;20219;-75
2023/10/02 00:21:57;;;;;;;7.75;5.90;;;21.00;55.10;;;;;;5053790;28;20195;-75
2023/10/02 00:24:26;;;;;;;10.02;6.00;;;21.00;55.10;;;;;;5053710;28;20234;-75
2023/10/02 00:26:57;;;;;;;8.65;5.93;;;21.00;55.10;;;;;;5053291;28;20191;-75
2023/10/02 00:29:25;;;;;;;7.60;5.85;;;21.00;55.20;;;;;;5053131;28;20300;-75
2023/10/02 00:31:54;;;;;;;7.97;5.70;;;20.90;55.10;;;;;;5053585;28;20203;-75
2023/10/02 00:34:31;;;;;;;8.77;5.90;;;21.00;55.30;;;;;;5053283;28;20195;-75
2023/10/02 00:37:01;;;;;;;9.05;5.90;;;21.00;55.30;;;;;;5053359;28;20191;-75
2023/10/02 00:39:31;;;;;;;9.57;6.10;;;20.90;55.20;;;;;;5036481;28;20565;-74
2023/10/02 00:42:24;;;;;;;7.75;5.28;;;21.00;55.30;;;;;;5053093;28;20556;-74
2023/10/02 00:44:52;;;;;;;6.90;5.43;;;20.90;55.30;;;;;;5053250;28;20207;-74
2023/10/02 00:47:41;;;;;;;9.00;6.20;;;20.90;55.30;;;;;;5054130;28;20720;-75
2023/10/02 00:50:16;;;;;;;8.52;5.75;;;20.90;55.30;;;;;;5053371;28;20215;-75
2023/10/02 00:52:47;;;;;;;6.45;5.28;;;20.90;55.20;;;;;;5053413;28;20194;-75
2023/10/02 00:55:15;;;;;;;7.90;5.82;;;20.90;55.30;;;;;;5052769;28;20210;-75
2023/10/02 00:57:43;;;;;;;8.38;5.72;;;20.90;55.30;;;;;;5052689;28;20282;-75
2023/10/02 01:00:21;;;;;;;7.85;5.65;;;20.90;55.30;;;;;;5052625;28;20262;-75
2023/10/02 01:02:51;;;;;;;7.95;5.68;;;20.90;55.30;;;;;;5052830;28;20674;-75
2023/10/02 01:05:21;;;;;;;8.25;5.68;;;20.90;55.30;;;;;;5052597;28;20713;-75
2023/10/02 01:07:53;;;;;;;8.52;5.63;;;20.90;55.30;;;;;;5052549;28;20192;-75
2023/10/02 01:10:20;;;;;;;8.45;5.65;;;20.90;55.30;;;;;;5052412;28;20211;-75
2023/10/02 01:12:49;;;;;;;8.30;5.93;;;20.90;55.30;;;;;;5052546;28;20669;-75
2023/10/02 01:15:19;;;;;;;7.32;5.13;;;20.80;55.40;;;;;;5052244;28;20654;-75
2023/10/02 01:17:51;;;;;;;7.55;5.53;;;20.90;55.60;;;;;;5052442;28;20194;-75
2023/10/02 01:20:35;;;;;;;7.50;5.60;;;20.80;55.40;;;;;;5052871;28;20589;-75
2023/10/02 01:23:16;;;;;;;8.63;5.63;;;20.80;55.50;;;;;;5052792;28;20198;-75
2023/10/02 01:25:46;;;;;;;7.05;5.22;;;20.80;55.60;;;;;;5052762;28;20198;-75
2023/10/02 01:28:15;;;;;;;7.72;5.50;;;20.80;55.60;;;;;;5052525;28;20206;-75
2023/10/02 01:30:44;;;;;;;7.35;5.40;;;20.80;55.70;;;;;;5053769;28;20210;-75
2023/10/02 01:33:17;;;;;;;8.15;5.45;;;20.80;55.70;;;;;;5053064;28;20187;-75
2023/10/02 01:35:48;;;;;;;8.43;5.90;;;20.70;55.60;;;;;;5052223;28;20199;-75
2023/10/02 01:38:18;;;;;;;9.95;6.13;;;20.70;55.70;;;;;;5052367;28;20211;-75
2023/10/02 01:40:48;;;;;;;7.55;5.40;;;20.70;55.70;;;;;;5052209;28;20226;-75
2023/10/02 01:43:16;;;;;;;7.25;5.43;;;20.70;55.70;;;;;;5052375;28;20296;-75
2023/10/02 01:45:43;;;;;;;8.75;5.70;;;20.70;55.80;;;;;;5052362;28;20253;-75
2023/10/02 01:48:13;;;;;;;8.20;5.38;;;20.70;55.80;;;;;;5052889;28;20536;-76
2023/10/02 01:50:41;;;;;;;7.32;5.22;;;20.80;55.90;;;;;;5052150;28;20211;-76
2023/10/02 01:53:26;;;;;;;6.95;5.38;;;20.70;55.80;;;;;;5052078;28;20225;-76
2023/10/02 01:56:00;;;;;;;7.72;5.35;;;20.70;55.90;;;;;;5052973;28;20192;-76
2023/10/02 01:58:29;;;;;;;7.57;5.45;;;20.70;55.80;;;;;;5055622;28;20725;-75
2023/10/02 02:00:57;;;;;;;9.43;5.40;;;20.70;55.90;;;;;;5056871;28;20318;-76
2023/10/02 02:03:28;;;;;;;6.75;4.90;;;20.60;55.80;;;;;;5056299;28;20199;-76
2023/10/02 02:05:56;;;;;;;7.57;5.50;;;20.70;55.90;;;;;;5040594;28;20194;-76
2023/10/02 02:08:23;;;;;;;7.28;5.32;;;20.70;55.90;;;;;;5055950;28;20226;-76
2023/10/02 02:11:14;;;;;;;7.20;5.10;;;20.70;55.90;;;;;;5055644;28;20315;-76
2023/10/02 02:13:44;;;;;;;6.72;5.20;;;20.70;55.90;;;;;;5055588;28;20554;-76
2023/10/02 02:16:15;;;;;;;7.80;5.03;;;20.70;56.00;;;;;;5055946;28;20646;-76
2023/10/02 02:18:43;;;;;;;7.70;5.13;;;20.60;55.90;;;;;;5055725;28;20191;-76
2023/10/02 02:21:15;;;;;;;8.13;5.50;;;20.70;56.00;;;;;;5056119;28;20254;-76
2023/10/02 02:23:42;;;;;;;6.85;5.18;;;20.60;56.00;;;;;;5056201;28;20203;-76
2023/10/02 02:26:10;;;;;;;6.93;5.45;;;20.60;55.90;;;;;;5071878;28;20175;-76
2023/10/02 02:28:43;;;;;;;6.82;4.93;;;20.70;56.00;;;;;;5080280;28;20199;-76
2023/10/02 02:31:29;;;;;;;7.50;5.03;;;20.60;55.90;;;;;;5080083;28;20211;-75
2023/10/02 02:34:01;;;;;;;8.35;5.78;;;20.60;55.80;;;;;;5080352;28;20202;-75
2023/10/02 02:36:28;;;;;;;7.53;5.47;;;20.60;55.80;;;;;;5068638;28;20191;-75
2023/10/02 02:39:17;;;;;;;7.63;5.28;;;20.70;55.80;;;;;;5056342;28;20219;-75
2023/10/02 02:41:47;;;;;;;6.22;4.70;;;20.60;55.80;;;;;;5056553;28;20227;-75
2023/10/02 02:47:14;;;;;;;7.35;5.25;;;20.60;55.80;;;;;;4978885;28;20197;-76
2023/10/02 02:49:51;;;;;;;7.65;5.43;;;20.60;55.80;;;;;;4996174;28;20244;-76
2023/10/02 02:52:19;;;;;;;7.60;5.18;;;20.60;55.70;;;;;;5016156;28;20203;-76
2023/10/02 02:54:47;;;;;;;7.30;5.43;;;20.60;55.80;;;;;;5054777;28;20633;-75
2023/10/02 02:57:18;;;;;;;7.88;5.72;;;20.60;55.70;;;;;;5055929;28;20265;-75
2023/10/02 02:59:46;;;;;;;7.65;5.47;;;20.60;55.70;;;;;;5054493;28;20306;-75
2023/10/02 03:02:21;;;;;;;7.88;5.60;;;20.60;55.80;;;;;;5054689;28;20564;-76
2023/10/02 03:04:50;;;;;;;7.32;5.00;;;20.60;55.70;;;;;;5054641;28;20198;-75
2023/10/02 03:07:29;;;;;;;7.50;5.32;;;20.60;55.70;;;;;;5038453;28;20201;-75
2023/10/02 03:09:59;;;;;;;7.63;5.53;;;20.60;55.60;;;;;;5054225;28;20269;-75
2023/10/02 03:12:28;;;;;;;6.95;5.20;;;20.60;55.60;;;;;;5054491;28;20253;-75
2023/10/02 03:14:56;;;;;;;7.15;5.43;;;20.50;55.60;;;;;;5038823;28;20203;-75
2023/10/02 03:17:29;;;;;;;7.60;5.30;;;20.50;55.60;;;;;;5054704;28;20199;-75
2023/10/02 03:19:57;;;;;;;8.13;5.47;;;20.60;55.70;;;;;;5054037;28;20693;-76
2023/10/02 03:22:27;;;;;;;7.68;5.65;;;20.60;55.60;;;;;;5054324;28;20223;-75
2023/10/02 03:24:57;;;;;;;7.80;5.25;;;20.60;55.50;;;;;;5055385;28;20202;-75
2023/10/02 03:27:26;;;;;;;7.07;5.10;;;20.70;55.50;;;;;;5054613;28;20204;-75
2023/10/02 03:29:53;;;;;;;7.70;5.53;;;20.70;55.40;;;;;;5054237;28;20226;-75
2023/10/02 03:32:21;;;;;;;6.78;5.22;;;20.70;55.20;;;;;;5054336;28;20207;-75
2023/10/02 03:35:02;;;;;;;7.63;5.25;;;20.70;55.10;;;;;;5054227;28;20286;-75
2023/10/02 03:37:29;;;;;;;7.82;5.13;;;20.80;55.20;;;;;;5054032;28;20263;-75
2023/10/02 03:40:00;;;;;;;7.63;5.07;;;20.80;55.20;;;;;;5053683;28;20310;-75
2023/10/02 03:42:31;;;;;;;8.70;5.05;;;20.80;55.00;;;;;;5053995;28;20231;-75
2023/10/02 03:44:58;;;;;;;7.30;5.35;;;20.90;55.00;;;;;;5053873;28;20203;-75
2023/10/02 03:47:26;;;;;;;7.53;5.22;;;20.90;54.90;;;;;;5053798;28;20200;-75
2023/10/02 03:50:00;;;;;;;6.90;4.72;;;20.90;54.90;;;;;;5053671;28;20227;-75
2023/10/02 03:52:28;;;;;;;7.22;5.35;;;20.90;54.90;;;;;;5053789;28;20194;-75
2023/10/02 03:54:55;;;;;;;7.35;5.38;;;20.90;54.90;;;;;;5053690;28;20206;-75
2023/10/02 03:57:49;;;;;;;7.55;5.25;;;20.90;54.80;;;;;;5054387;28;20203;-75
2023/10/02 04:00:21;;;;;;;7.30;5.20;;;20.90;54.80;;;;;;5053513;28;20631;-75
2023/10/02 04:02:48;;;;;;;8.32;5.72;;;20.90;54.80;;;;;;5054567;28;20219;-75
2023/10/02 04:05:30;;;;;;;7.75;5.25;;;20.90;54.80;;;;;;5063162;28;20202;-75
2023/10/02 04:08:21;;;;;;;7.40;5.15;;;20.90;54.80;;;;;;5068040;28;20231;-75
2023/10/02 04:11:02;;;;;;;7.47;5.38;;;20.90;54.80;;;;;;5057390;28;20580;-75
2023/10/02 04:13:32;;;;;;;7.57;5.18;;;20.90;55.40;;;;;;5053525;28;20281;-75
2023/10/02 04:18:49;;;;;;;7.57;5.28;;;20.90;54.90;;;;;;5053534;28;20227;-75
2023/10/02 04:21:19;;;;;;;7.95;5.55;;;20.90;54.90;;;;;;5053648;28;20204;-75
2023/10/02 04:23:47;;;;;;;7.82;5.13;;;20.80;54.80;;;;;;5053368;28;20211;-76
2023/10/02 04:26:19;;;;;;;7.65;5.55;;;20.90;54.90;;;;;;5054070;28;20203;-75
2023/10/02 04:28:56;;;;;;;7.47;5.47;;;20.80;54.90;;;;;;5053217;28;20195;-75
2023/10/02 04:31:27;;;;;;;7.32;5.03;;;20.80;54.90;;;;;;5053818;28;20192;-75
2023/10/02 04:34:15;;;;;;;8.93;5.90;;;20.80;54.90;;;;;;5053135;28;20203;-75
2023/10/02 04:36:41;;;;;;;7.82;5.13;;;20.80;55.00;;;;;;5053215;28;20657;-76
2023/10/02 04:39:51;;;;;;;8.77;5.57;;;20.80;55.00;;;;;;5053291;28;20219;-76
2023/10/02 04:42:11;;;;;;;8.57;5.35;;;20.80;55.10;;;;;;5053255;28;20239;-76
2023/10/02 04:44:45;;;;;;;7.70;5.30;;;20.80;55.20;;;;;;5053509;28;20328;-76
2023/10/02 04:47:17;;;;;;;7.88;4.90;;;20.70;55.10;;;;;;5053150;28;20219;-76
2023/10/02 04:52:53;;;;;;;6.18;5.40;;;20.80;55.20;;;;;;5052787;28;20553;-76
2023/10/02 04:55:16;;;;;;;6.45;4.85;;;20.70;55.20;;;;;;5052796;28;20199;-75
2023/10/02 04:57:43;;;;;;;6.28;5.32;;;20.70;55.10;;;;;;5052633;28;20187;-75
2023/10/02 05:00:26;;;;;;;7.45;5.47;;;20.70;55.10;;;;;;5052878;28;20219;-75
2023/10/02 05:03:09;;;;;;;6.82;5.20;;;20.70;55.10;;;;;;5053343;28;20196;-75
2023/10/02 05:05:47;;;;;;;6.75;4.90;;;20.70;55.10;;;;;;5053566;28;20195;-76
2023/10/02 05:08:18;;;;;;;8.10;5.22;;;20.70;55.10;;;;;;5060641;28;20261;-75
2023/10/02 05:10:52;;;;;;;6.57;4.90;;;20.70;55.10;;;;;;5074695;28;20235;-75
2023/10/02 05:13:44;;;;;;;6.93;5.10;;;20.70;55.10;;;;;;5074523;28;20187;-75
2023/10/02 05:16:12;;;;;;;6.20;4.88;;;20.70;55.10;;;;;;5060644;28;20193;-75
2023/10/02 05:18:44;;;;;;;6.90;5.10;;;20.70;55.10;;;;;;5073556;28;20275;-75
2023/10/02 05:21:11;;;;;;;6.78;5.15;;;20.60;55.20;;;;;;5054579;28;20712;-75
2023/10/02 05:23:38;;;;;;;7.65;5.13;;;20.60;55.20;;;;;;5074794;28;20186;-75
2023/10/02 05:26:05;;;;;;;8.23;5.43;;;20.60;55.30;;;;;;5075270;28;20207;-75
2023/10/02 05:28:44;;;;;;;8.27;5.45;;;20.60;55.40;;;;;;5059798;28;20206;-76
2023/10/02 05:31:12;;;;;;;7.30;5.15;;;20.60;55.30;;;;;;5053512;28;20616;-76
2023/10/02 05:33:41;;;;;;;8.05;5.68;;;20.60;55.40;;;;;;5056753;28;20206;-75
2023/10/02 05:36:08;;;;;;;7.57;5.47;;;20.60;55.40;;;;;;5056904;28;20199;-76
2023/10/02 05:38:36;;;;;;;6.15;4.93;;;20.60;55.30;;;;;;5056491;28;20199;-76
2023/10/02 05:41:03;;;;;;;8.10;4.93;;;20.60;55.30;;;;;;5058356;28;20241;-76
2023/10/02 05:43:55;;;;;;;6.18;4.68;;;20.60;55.20;;;;;;5058605;28;20202;-75
2023/10/02 05:46:23;;;;;;;7.05;5.38;;;20.60;55.20;;;;;;5057894;28;20191;-75
2023/10/02 05:49:00;;;;;;;8.10;5.07;;;20.60;55.10;;;;;;5060384;28;20199;-75
2023/10/02 05:51:45;;;;;;;7.03;5.35;;;20.60;55.10;;;;;;5056909;28;20698;-76
2023/10/02 05:54:13;;;;;;;6.72;4.72;;;20.60;55.10;;;;;;5056680;28;20286;-75
2023/10/02 05:56:40;;;;;;;7.68;5.28;;;20.60;55.10;;;;;;5039953;28;20195;-75
2023/10/02 05:59:07;;;;;;;7.90;5.40;;;20.60;55.10;;;;;;5056821;28;20227;-75
2023/10/02 06:01:35;;;;;;;7.55;5.25;;;20.60;55.10;;;;;;5055971;28;20585;-75
2023/10/02 06:04:05;;;;;;;7.78;5.55;;;20.60;55.00;;;;;;5056342;28;20257;-76
2023/10/02 06:06:35;;;;;;;8.07;5.53;;;20.60;55.00;;;;;;5056192;28;20196;-76
2023/10/02 06:09:03;;;;;;;6.85;4.90;;;20.60;55.00;;;;;;5055863;28;20191;-75
2023/10/02 06:11:33;;;;;;;6.93;4.95;;;20.60;55.10;;;;;;5055870;28;20191;-75
2023/10/02 06:14:09;;;;;;;7.45;5.40;;;20.60;55.00;;;;;;5056007;28;20325;-75
2023/10/02 06:16:37;;;;;;;7.32;5.13;;;20.60;54.00;;;;;;5056078;28;20680;-75
2023/10/02 06:19:06;;;;;;;7.85;5.78;;;20.70;53.80;;;;;;5056325;28;20206;-75
2023/10/02 06:21:40;;;;;;;9.32;6.00;;;20.70;53.60;;;;;;5059269;28;20215;-76
2023/10/02 06:24:09;;;;;;;9.32;5.90;;;20.80;53.40;;;;;;5078236;28;20171;-75
2023/10/02 06:26:49;;;;;;;9.27;5.88;;;20.70;53.30;;;;;;5076379;28;20199;-76
2023/10/02 06:29:22;;;;;;;8.55;5.20;;;20.80;53.20;;;;;;5057094;28;20273;-76
2023/10/02 06:31:58;;;;;;;9.25;5.88;;;20.80;52.80;;;;;;5055817;28;20199;-76
2023/10/02 06:34:39;;;;;;;8.43;5.80;;;20.90;52.80;;;;;;5056200;28;20242;-76
2023/10/02 06:37:08;;;;;;;7.60;6.07;;;20.90;52.70;;;;;;5055606;28;20203;-76
2023/10/02 06:39:39;;;;;;;8.43;5.43;;;20.90;52.70;;;;;;5056023;28;20223;-76
2023/10/02 06:42:07;;;;;;;8.90;6.03;;;20.90;52.50;;;;;;5055180;28;20224;-76
2023/10/02 06:44:38;;;;;;;7.90;5.50;;;20.90;52.50;;;;;;5054914;28;20199;-76
2023/10/02 06:47:11;;;;;;;9.25;5.78;;;20.90;52.60;;;;;;5056428;28;20257;-75
2023/10/02 06:49:43;;;;;;;8.73;5.85;;;20.90;52.60;;;;;;5056330;28;20223;-76
2023/10/02 06:52:17;;;;;;;8.75;6.00;;;20.90;52.50;;;;;;5057062;28;20216;-76
2023/10/02 06:54:44;;;;;;;8.18;5.65;;;20.90;52.80;;;;;;5073372;28;20209;-74
2023/10/02 06:57:15;;;;;;;7.93;5.55;;;20.90;53.00;;;;;;5078335;28;20199;-76
2023/10/02 06:59:51;;;;;;;8.93;5.60;;;20.90;52.80;;;;;;5080407;28;20218;-76
2023/10/02 07:02:18;;;;;;;9.40;6.03;;;20.90;53.30;;;;;;5077964;28;20211;-76
2023/10/02 07:04:47;;;;;;;11.05;6.20;;;20.90;53.00;;;;;;5077886;28;20172;-76
2023/10/02 07:07:17;;;;;;;10.07;5.78;;;20.90;53.30;;;;;;5074241;28;20721;-77
2023/10/02 07:09:44;;;;;;;9.65;6.40;;;21.00;53.60;;;;;;5056751;28;20306;-76
2023/10/02 07:12:13;;;;;;;9.27;6.15;;;21.00;53.90;;;;;;5078990;28;20180;-77
2023/10/02 07:14:42;;;;;;;10.50;6.40;;;21.00;53.90;;;;;;5067935;28;20231;-77
2023/10/02 07:17:16;;;;;;;8.63;5.43;;;21.00;53.90;;;;;;5063191;28;20251;-77
2023/10/02 07:19:51;;;;;;;8.60;6.03;;;21.00;53.90;;;;;;5059722;28;20223;-77
2023/10/02 07:22:22;;;;;;;8.23;6.05;;;21.10;54.20;;;;;;5056493;28;20208;-77
2023/10/02 07:24:49;;;;;;;9.32;6.25;;;21.10;54.00;;;;;;5056703;28;20200;-76
2023/10/02 07:27:25;;;;;;;9.45;6.47;;;21.10;54.00;;;;;;5055134;28;20273;-76
2023/10/02 07:29:56;;;;;;;8.50;6.30;;;21.20;54.00;;;;;;5056072;28;20215;-76
2023/10/02 07:32:25;;;;;;;8.90;6.18;;;21.20;53.80;;;;;;5054810;28;20188;-77
2023/10/02 07:34:54;;;;;;;14.13;5.97;;;21.40;53.90;;;;;;5055186;28;20204;-77
2023/10/02 07:37:25;;;;;;;10.57;6.82;;;21.50;53.30;;;;;;5038126;28;20204;-77
2023/10/02 07:40:00;;;;;;;9.20;6.07;;;21.70;53.00;;;;;;5062155;28;20250;-77
2023/10/02 07:42:29;;;;;;;9.75;6.50;;;21.90;52.60;;;;;;5069289;28;20592;-77
2023/10/02 07:45:11;;;;;;;8.18;5.47;;;22.20;52.30;;;;;;5075099;28;20183;-77
2023/10/02 07:47:53;;;;;;;10.15;6.30;;;22.30;52.10;;;;;;5056776;28;20218;-77
2023/10/02 07:50:33;;;;;;;9.35;5.68;;;22.50;51.70;;;;;;5058388;28;20219;-77
2023/10/02 07:53:04;;;;;;;9.75;6.20;;;22.60;51.40;;;;;;5058452;28;20662;-77
2023/10/02 07:55:34;;;;;;;7.75;5.75;;;22.70;51.30;;;;;;5053643;28;20253;-77
2023/10/02 07:58:01;;;;;;;10.07;5.68;;;22.90;51.00;;;;;;5054495;28;20195;-77
2023/10/02 08:00:37;;;;;;;11.90;6.15;;;23.00;50.40;;;;;;5054131;28;20258;-77
2023/10/02 08:05:56;;;;;;;9.27;5.85;;;23.20;50.10;;;;;;5055173;28;20215;-76
2023/10/02 08:08:25;;;;;;;12.35;6.30;;;23.30;49.60;;;;;;5054291;28;20195;-76
2023/10/02 08:10:52;;;;;;;11.27;6.20;;;23.50;49.30;;;;;;5054225;28;20298;-76
2023/10/02 08:13:32;;;;;;;9.05;5.80;;;23.50;49.00;;;;;;5054299;28;20606;-76
2023/10/02 08:16:01;;;;;;;8.73;5.50;;;23.60;48.70;;;;;;5055169;28;20188;-76
2023/10/02 08:18:29;;;;;;;8.20;6.00;;;23.70;48.70;;;;;;5062802;28;20697;-76
2023/10/02 08:20:58;;;;;;;7.97;5.93;;;23.80;48.40;;;;;;5058912;28;20582;-76
2023/10/02 08:23:27;;;;;;;9.70;5.97;;;23.90;48.20;;;;;;5053996;28;20692;-77
2023/10/02 08:26:02;;;;;;;9.82;5.75;;;24.00;48.40;;;;;;5055436;28;20191;-77
2023/10/02 08:28:33;;;;;;;8.77;5.65;;;24.10;48.40;;;;;;5055159;28;20187;-77
2023/10/02 08:31:03;;;;;;;9.30;6.43;;;24.20;48.30;;;;;;5055783;28;20262;-77
2023/10/02 08:33:31;;;;;;;9.20;5.75;;;24.20;48.00;;;;;;5054607;28;20199;-77
2023/10/02 08:36:01;;;;;;;9.23;5.72;;;24.30;47.70;;;;;;5057863;28;20226;-78
2023/10/02 08:38:28;;;;;;;8.65;6.15;;;24.40;47.60;;;;;;5056371;28;20196;-78
2023/10/02 08:40:59;;;;;;;7.80;5.70;;;24.50;47.60;;;;;;5056060;28;20215;-78
2023/10/02 08:43:26;;;;;;;9.10;6.10;;;24.50;47.20;;;;;;5055713;28;20589;-77
2023/10/02 08:45:53;;;;;;;9.98;5.85;;;24.60;47.20;;;;;;5056660;28;20195;-78
2023/10/02 08:48:21;;;;;;;8.43;5.85;;;24.60;47.00;;;;;;5056792;28;20218;-78
2023/10/02 08:50:48;;;;;;;9.40;5.78;;;24.70;47.10;;;;;;5057114;28;20628;-77
2023/10/02 08:53:21;;;;;;;9.38;5.60;;;24.80;47.10;;;;;;5057000;28;20602;-77
2023/10/02 08:55:54;;;;;;;8.70;5.72;;;24.80;47.10;;;;;;5058213;28;20282;-77
2023/10/02 08:58:22;;;;;;;8.55;5.90;;;24.80;47.00;;;;;;5058537;28;20191;-77
2023/10/02 09:01:17;;;;;;;7.68;5.70;;;24.90;46.80;;;;;;5057242;28;20241;-77
2023/10/02 09:03:48;;;;;;;7.38;5.50;;;25.00;46.80;;;;;;5056586;28;20324;-77
2023/10/02 09:06:31;;;;;;;8.32;5.90;;;25.00;46.70;;;;;;5056504;28;20191;-77
2023/10/02 09:09:17;;;;;;;9.00;5.88;;;25.00;46.60;;;;;;5054623;28;20219;-77
2023/10/02 09:11:44;;;;;;;8.60;5.90;;;25.10;46.50;;;;;;5054534;28;20202;-77
2023/10/02 09:14:16;;;;;;;8.77;5.65;;;25.10;46.40;;;;;;5055515;28;20206;-78
2023/10/02 09:16:46;;;;;;;6.45;5.55;;;25.10;46.30;;;;;;5054548;28;20201;-77
2023/10/02 09:19:34;;;;;;;8.68;5.53;;;25.20;46.30;;;;;;5037663;28;20335;-77
2023/10/02 09:22:07;;;;;;;8.02;5.50;;;25.30;46.30;;;;;;5053929;28;20207;-77
2023/10/02 09:24:35;;;;;;;9.02;5.85;;;25.30;46.10;;;;;;5054434;28;20249;-77
2023/10/02 09:29:45;;;;;;;8.15;5.70;;;25.30;46.00;;;;;;5056655;28;20693;-76
2023/10/02 09:32:21;;;;;;;10.00;6.05;;;25.30;46.10;;;;;;5053316;28;20720;-77
2023/10/02 09:37:35;;;;;;;8.40;5.82;;;25.30;46.20;;;;;;5053715;28;20520;-78
2023/10/02 09:40:14;;;;;;;7.38;5.50;;;25.40;46.20;;;;;;5053892;28;20226;-76
2023/10/02 09:42:45;;;;;;;9.45;5.70;;;25.30;46.20;;;;;;5055156;28;20206;-76
2023/10/02 09:45:16;;;;;;;9.23;5.75;;;25.40;46.10;;;;;;5054063;28;20262;-76
2023/10/02 09:50:47;;;;;;;8.88;6.00;;;25.40;46.10;;;;;;4993350;28;20235;-76
2023/10/02 09:53:15;;;;;;;8.43;5.32;;;25.40;46.10;;;;;;4992779;28;20289;-77
2023/10/02 09:55:57;;;;;;;8.73;5.57;;;25.40;46.10;;;;;;4992929;28;20284;-77
2023/10/02 09:58:31;;;;;;;9.18;5.78;;;25.40;46.10;;;;;;4993635;28;20247;-76
2023/10/02 10:01:33;;;;;;;8.63;5.93;;;25.40;46.10;;;;;;4992781;28;20236;-76
2023/10/02 10:03:59;;;;;;;9.35;6.13;;;25.40;46.10;;;;;;4992770;28;20217;-76
2023/10/02 10:06:29;;;;;;;9.18;5.72;;;25.30;46.20;;;;;;5009238;28;20212;-76
2023/10/02 10:09:26;;;;;;;7.93;5.90;;;25.40;46.30;;;;;;4992587;28;20280;-76
2023/10/02 10:14:40;;;;;;;8.23;5.68;;;25.30;46.30;;;;;;4993144;28;20208;-77
2023/10/02 10:17:13;;;;;;;9.95;6.40;;;25.30;46.30;;;;;;5008888;28;20296;-76
2023/10/02 10:19:44;;;;;;;9.60;6.20;;;25.20;46.40;;;;;;4994781;28;20220;-76
2023/10/02 10:22:35;;;;;;;8.85;5.63;;;25.20;46.50;;;;;;4996351;28;20216;-76
2023/10/02 10:28:05;;;;;;;9.02;5.78;;;25.20;46.70;;;;;;5012749;28;20204;-76
2023/10/02 10:30:44;;;;;;;8.15;5.72;;;25.20;46.80;;;;;;4983672;28;20227;-76
2023/10/02 10:33:45;;;;;;;10.43;5.93;;;25.20;46.80;;;;;;4997512;28;20272;-76
2023/10/02 10:36:36;;;;;;;8.10;6.05;;;25.20;47.00;;;;;;5012878;28;20553;-76
2023/10/02 10:39:42;;;;;;;8.88;5.97;;;25.30;47.00;;;;;;4995940;28;20193;-76
2023/10/02 10:42:10;;;;;;;9.48;6.20;;;25.20;46.90;;;;;;4985158;28;20224;-78
2023/10/02 10:44:43;;;;;;;8.50;6.20;;;25.20;47.50;;;;;;4980128;28;20205;-78
2023/10/02 10:47:14;;;;;;;8.50;5.63;;;25.30;46.90;;;;;;4996311;28;20243;-77
2023/10/02 10:50:11;;;;;;;9.88;6.40;;;25.20;47.00;;;;;;4996073;28;20216;-77
2023/10/02 10:52:39;;;;;;;7.95;5.95;;;25.20;47.00;;;;;;4996912;28;20185;-78
2023/10/02 10:55:32;;;;;;;7.00;5.78;;;25.20;47.10;;;;;;4995915;28;20300;-81
2023/10/02 10:58:01;;;;;;;8.23;5.95;;;25.20;47.10;;;;;;4995634;28;20292;-78
2023/10/02 11:00:31;;;;;;;8.23;5.65;;;25.10;47.10;;;;;;5011844;28;20300;-78
2023/10/02 11:03:01;;;;;;;9.15;6.40;;;25.10;47.10;;;;;;4995449;28;20213;-79
2023/10/02 11:05:34;;;;;;;9.05;5.97;;;25.10;47.20;;;;;;4995781;28;20267;-78
2023/10/02 11:08:24;;;;;;;8.52;6.00;;;25.10;47.30;;;;;;4996239;28;20201;-78
2023/10/02 11:11:06;;;;;;;9.85;6.20;;;25.10;47.30;;;;;;4995815;28;20702;-79
2023/10/02 11:13:51;;;;;;;9.85;5.57;;;25.10;47.30;;;;;;4995452;28;20192;-79
2023/10/02 11:16:31;;;;;;;9.23;6.18;;;25.10;47.40;;;;;;4995347;28;20542;-78
2023/10/02 11:19:10;;;;;;;9.20;6.07;;;25.10;47.50;;;;;;4995217;28;20284;-78
2023/10/02 11:21:45;;;;;;;10.45;6.72;;;25.10;47.60;;;;;;4995270;28;20548;-78
2023/10/02 11:24:22;;;;;;;8.93;6.00;;;25.00;47.60;;;;;;4995142;28;20208;-78
2023/10/02 11:26:53;;;;;;;8.40;5.97;;;25.10;47.60;;;;;;4994962;28;20208;-78
2023/10/02 11:29:21;;;;;;;9.82;6.35;;;25.10;47.70;;;;;;4994829;28;20691;-78
2023/10/02 11:32:18;;;;;;;8.63;5.80;;;25.10;47.80;;;;;;5011357;28;20569;-78
2023/10/02 11:34:46;;;;;;;9.90;6.47;;;25.10;47.80;;;;;;4995006;28;20197;-78
2023/10/02 11:37:13;;;;;;;9.95;5.72;;;25.10;47.90;;;;;;4994931;28;20197;-78
2023/10/02 11:39:40;;;;;;;9.07;6.43;;;25.10;47.90;;;;;;5011154;28;20223;-78
2023/10/02 11:42:07;;;;;;;9.75;6.22;;;25.10;48.00;;;;;;4995044;28;20204;-79
2023/10/02 11:44:35;;;;;;;8.88;6.05;;;25.10;48.00;;;;;;4994949;28;20216;-79
2023/10/02 11:47:03;;;;;;;8.63;5.82;;;25.10;48.00;;;;;;4994950;28;20611;-79
2023/10/02 11:49:31;;;;;;;9.38;6.05;;;25.10;48.10;;;;;;4994751;28;20239;-78
2023/10/02 11:52:00;;;;;;;10.07;6.50;;;25.10;48.10;;;;;;4995029;28;20197;-78
2023/10/02 11:54:27;;;;;;;8.75;6.00;;;25.10;48.20;;;;;;4994742;28;20204;-78
2023/10/02 11:56:55;;;;;;;10.48;6.00;;;25.00;48.20;;;;;;4995307;28;20264;-78
2023/10/02 11:59:21;;;;;;;9.50;6.43;;;25.00;48.20;;;;;;4995942;28;20602;-76
2023/10/02 12:01:49;;;;;;;8.05;5.55;;;25.00;48.20;;;;;;4994708;28;20201;-76
2023/10/02 12:04:17;;;;;;;9.50;6.50;;;25.00;48.30;;;;;;4995595;28;20259;-76
2023/10/02 12:06:44;;;;;;;8.98;6.13;;;25.10;48.40;;;;;;4994848;28;20201;-76
2023/10/02 12:09:17;;;;;;;10.27;6.88;;;25.00;48.30;;;;;;4994591;28;20217;-76
2023/10/02 12:11:45;;;;;;;9.70;6.53;;;25.10;48.40;;;;;;4994286;28;20275;-76
2023/10/02 12:14:12;;;;;;;10.93;6.63;;;25.00;48.40;;;;;;4995802;28;20648;-77
2023/10/02 12:16:39;;;;;;;8.93;6.22;;;25.10;48.50;;;;;;4994370;28;20254;-76
2023/10/02 12:19:08;;;;;;;9.57;6.10;;;25.00;48.50;;;;;;4994246;28;20197;-76
2023/10/02 12:21:37;;;;;;;8.63;6.10;;;25.10;48.60;;;;;;4994170;28;20201;-76
2023/10/02 12:24:07;;;;;;;9.55;6.53;;;25.00;48.60;;;;;;4994814;28;20244;-76
2023/10/02 12:26:34;;;;;;;9.68;6.20;;;25.00;48.70;;;;;;4978348;28;20569;-76
2023/10/02 12:29:02;;;;;;;9.70;6.40;;;25.00;48.70;;;;;;4994564;28;20216;-77
2023/10/02 12:31:31;;;;;;;9.93;6.55;;;25.00;48.80;;;;;;5011050;28;20208;-77
2023/10/02 12:33:58;;;;;;;9.80;6.40;;;24.90;48.80;;;;;;4993993;28;20251;-76
2023/10/02 12:36:26;;;;;;;10.30;7.05;;;25.00;48.90;;;;;;4994327;28;20723;-76
2023/10/02 12:38:54;;;;;;;10.13;6.60;;;24.90;48.90;;;;;;4995022;28;20287;-77
2023/10/02 12:41:22;;;;;;;8.88;6.18;;;24.90;48.90;;;;;;4993626;28;20228;-77
2023/10/02 12:43:55;;;;;;;8.13;6.10;;;24.90;49.00;;;;;;4978412;28;20221;-77
2023/10/02 12:46:23;;;;;;;9.25;6.40;;;24.90;49.00;;;;;;5010447;28;20251;-77
2023/10/02 12:48:51;;;;;;;10.93;6.63;;;24.90;49.10;;;;;;4993661;28;20278;-77
2023/10/02 12:51:18;;;;;;;9.75;6.93;;;24.90;49.10;;;;;;4995000;28;20260;-76
2023/10/02 12:53:45;;;;;;;10.57;6.55;;;24.90;49.10;;;;;;4993939;28;20227;-76
2023/10/02 12:56:18;;;;;;;11.00;7.07;;;24.90;49.20;;;;;;4994033;28;20197;-76
2023/10/02 12:58:48;;;;;;;10.65;6.75;;;24.90;49.30;;;;;;5010460;28;20193;-76
2023/10/02 13:01:16;;;;;;;10.77;7.25;;;24.80;49.30;;;;;;4994616;28;20205;-76
2023/10/02 13:03:44;;;;;;;9.43;6.30;;;24.80;49.30;;;;;;4994569;28;20275;-76
2023/10/02 13:06:13;;;;;;;9.80;6.82;;;24.90;49.40;;;;;;4995208;28;20238;-76
2023/10/02 13:08:41;;;;;;;9.57;6.88;;;24.90;49.30;;;;;;5012174;28;20271;-76
2023/10/02 13:11:12;;;;;;;11.23;7.05;;;24.90;49.30;;;;;;4998578;28;20224;-76
2023/10/02 13:13:44;;;;;;;9.55;6.85;;;24.90;49.30;;;;;;4996180;28;20243;-76
2023/10/02 13:16:11;;;;;;;11.80;6.90;;;24.90;49.30;;;;;;5020436;28;20264;-76
2023/10/02 13:18:39;;;;;;;9.40;6.70;;;24.90;49.30;;;;;;5017918;28;20185;-76
2023/10/02 13:21:08;;;;;;;10.98;6.95;;;24.90;49.30;;;;;;5012160;28;20640;-76
2023/10/02 13:23:36;;;;;;;12.95;7.43;;;24.90;49.40;;;;;;4993864;28;20248;-76
2023/10/02 13:26:05;;;;;;;9.90;6.93;;;24.80;49.30;;;;;;4994301;28;20220;-76
2023/10/02 13:28:34;;;;;;;12.07;7.97;;;24.80;49.60;;;;;;4994272;28;20560;-76
2023/10/02 13:31:12;;;;;;;15.48;8.48;;;24.80;49.30;;;;;;4978163;28;20225;-76
2023/10/02 13:33:41;;;;;;;16.83;10.43;;;24.90;49.50;;;;;;4993635;28;20189;-76
2023/10/02 13:36:09;;;;;;;17.98;10.30;;;24.80;48.70;;;;;;4993396;28;20579;-76
2023/10/02 13:38:36;;;;;;;19.00;10.75;;;24.80;48.80;;;;;;4993353;28;20193;-76
2023/10/02 13:41:08;;;;;;;21.52;12.40;;;24.80;48.70;;;;;;5009602;28;20216;-76
2023/10/02 13:43:37;;;;;;;23.27;12.43;;;24.80;47.30;;;;;;5009511;28;20221;-76